createdAt,value
2023-05-07T00:02:09.068Z,14.20
2023-05-07T00:04:38.772Z,14.20
2023-05-07T00:07:06.599Z,14.30
2023-05-07T00:09:33.520Z,14.20
2023-05-07T00:12:00.728Z,14.30
2023-05-07T00:14:27.760Z,14.10
2023-05-07T00:16:54.710Z,14.20
2023-05-07T00:19:21.656Z,14.20
2023-05-07T00:21:48.570Z,14.30
2023-05-07T00:24:15.587Z,14.30
2023-05-07T00:26:42.431Z,14.40
2023-05-07T00:29:09.334Z,14.20
2023-05-07T00:31:36.415Z,14.30
2023-05-07T00:34:03.492Z,14.30
2023-05-07T00:36:31.139Z,14.20
2023-05-07T00:39:01.099Z,14.20
2023-05-07T00:41:27.946Z,14.10
2023-05-07T00:43:54.783Z,14.20
2023-05-07T00:46:22.384Z,14.20
2023-05-07T00:48:50.763Z,14.10
2023-05-07T00:51:18.776Z,14.10
2023-05-07T00:53:46.333Z,14.10
2023-05-07T00:56:13.462Z,14.00
2023-05-07T00:58:41.093Z,14.00
2023-05-07T01:01:08.644Z,14.10
2023-05-07T01:03:35.532Z,14.20
2023-05-07T01:06:03.575Z,14.30
2023-05-07T01:08:31.938Z,14.30
2023-05-07T01:10:59.479Z,14.30
2023-05-07T01:13:26.620Z,14.30
2023-05-07T01:15:53.811Z,14.20
2023-05-07T01:18:21.068Z,14.20
2023-05-07T01:20:48.008Z,14.20
2023-05-07T01:23:16.224Z,14.10
2023-05-07T01:25:43.100Z,14.10
2023-05-07T01:28:11.744Z,14.20
2023-05-07T01:30:45.715Z,14.20
2023-05-07T01:33:16.617Z,14.20
2023-05-07T01:35:47.592Z,14.20
2023-05-07T01:38:14.701Z,14.20
2023-05-07T01:40:41.872Z,14.10
2023-05-07T01:43:10.572Z,13.90
2023-05-07T01:45:39.579Z,13.90
2023-05-07T01:48:08.178Z,13.80
2023-05-07T01:50:35.752Z,13.90
2023-05-07T01:53:03.513Z,14.00
2023-05-07T01:55:30.640Z,14.00
2023-05-07T01:57:57.455Z,14.00
2023-05-07T02:00:24.548Z,14.00
2023-05-07T02:02:51.607Z,14.00
2023-05-07T02:05:32.889Z,14.10
2023-05-07T02:08:04.898Z,14.00
2023-05-07T02:10:32.199Z,13.90
2023-05-07T02:13:02.708Z,13.90
2023-05-07T02:15:29.662Z,14.00
2023-05-07T02:18:05.400Z,13.90
2023-05-07T02:20:33.000Z,13.80
2023-05-07T02:22:59.915Z,13.80
2023-05-07T02:25:28.561Z,13.90
2023-05-07T02:27:55.508Z,13.80
2023-05-07T02:30:27.611Z,13.80
2023-05-07T02:32:57.571Z,13.80
2023-05-07T02:35:26.187Z,13.90
2023-05-07T02:37:53.427Z,13.90
2023-05-07T02:40:20.726Z,13.80
2023-05-07T02:42:47.791Z,13.80
2023-05-07T02:45:15.441Z,13.90
2023-05-07T02:47:43.418Z,13.80
2023-05-07T02:50:10.916Z,13.90
2023-05-07T02:52:38.206Z,13.80
2023-05-07T02:55:05.810Z,13.70
2023-05-07T02:57:32.707Z,13.70
2023-05-07T03:00:00.250Z,13.80
2023-05-07T03:02:30.337Z,13.80
2023-05-07T03:04:57.307Z,13.70
2023-05-07T03:07:24.243Z,13.70
2023-05-07T03:09:51.179Z,13.70
2023-05-07T03:12:18.147Z,13.70
2023-05-07T03:14:44.976Z,13.60
2023-05-07T03:17:11.887Z,13.70
2023-05-07T03:19:38.722Z,13.70
2023-05-07T03:22:05.669Z,13.60
2023-05-07T03:24:32.713Z,13.60
2023-05-07T03:26:59.536Z,13.60
2023-05-07T03:29:26.491Z,13.60
2023-05-07T03:31:53.636Z,13.50
2023-05-07T03:34:23.159Z,13.60
2023-05-07T03:36:50.784Z,13.60
2023-05-07T03:39:18.389Z,13.50
2023-05-07T03:41:45.394Z,13.50
2023-05-07T03:44:12.214Z,13.60
2023-05-07T03:46:39.651Z,13.60
2023-05-07T03:49:07.778Z,13.60
2023-05-07T03:51:34.686Z,13.50
2023-05-07T03:54:01.566Z,13.50
2023-05-07T03:56:32.208Z,13.50
2023-05-07T03:59:02.272Z,13.50
2023-05-07T04:01:29.301Z,13.50
2023-05-07T04:03:57.317Z,13.50
2023-05-07T04:06:25.303Z,13.50
2023-05-07T04:08:52.173Z,13.50
2023-05-07T04:11:19.031Z,13.50
2023-05-07T04:13:45.926Z,13.40
2023-05-07T04:16:12.908Z,13.50
2023-05-07T04:18:40.230Z,13.50
2023-05-07T04:21:14.514Z,13.40
2023-05-07T04:23:41.369Z,13.50
2023-05-07T04:26:11.565Z,13.50
2023-05-07T04:28:44.107Z,13.40
2023-05-07T04:31:11.266Z,13.40
2023-05-07T04:33:38.970Z,13.40
2023-05-07T04:36:08.779Z,13.40
2023-05-07T04:38:42.023Z,13.40
2023-05-07T04:41:10.481Z,13.30
2023-05-07T04:43:41.171Z,13.30
2023-05-07T04:46:08.202Z,13.40
2023-05-07T04:48:35.872Z,13.30
2023-05-07T04:51:05.517Z,13.30
2023-05-07T04:53:32.464Z,13.30
2023-05-07T04:55:59.626Z,13.30
2023-05-07T04:58:33.108Z,13.30
2023-05-07T05:01:01.435Z,13.30
2023-05-07T05:03:29.208Z,13.30
2023-05-07T05:05:56.261Z,13.30
2023-05-07T05:08:24.180Z,13.30
2023-05-07T05:10:51.490Z,13.40
2023-05-07T05:13:18.850Z,13.30
2023-05-07T05:15:46.810Z,13.40
2023-05-07T05:18:13.856Z,13.40
2023-05-07T05:20:41.260Z,13.40
2023-05-07T05:23:09.464Z,13.40
2023-05-07T05:25:38.384Z,13.40
2023-05-07T05:28:05.262Z,13.50
2023-05-07T05:30:34.470Z,13.50
2023-05-07T05:33:01.715Z,13.40
2023-05-07T05:35:30.541Z,13.40
2023-05-07T05:37:58.645Z,13.40
2023-05-07T05:40:25.556Z,13.60
2023-05-07T05:42:52.702Z,13.50
2023-05-07T05:45:19.921Z,13.40
2023-05-07T05:47:47.279Z,13.40
2023-05-07T05:50:14.557Z,13.50
2023-05-07T05:52:41.883Z,13.60
2023-05-07T05:55:09.682Z,13.40
2023-05-07T05:57:37.729Z,13.50
2023-05-07T06:00:05.636Z,13.40
2023-05-07T06:02:34.344Z,13.50
2023-05-07T06:05:01.644Z,13.50
2023-05-07T06:07:28.492Z,13.60
2023-05-07T06:09:56.468Z,13.60
2023-05-07T06:12:23.616Z,13.50
2023-05-07T06:14:50.509Z,13.60
2023-05-07T06:17:19.486Z,13.60
2023-05-07T06:19:48.670Z,13.70
2023-05-07T06:22:18.251Z,13.70
2023-05-07T06:24:45.463Z,13.90
2023-05-07T06:27:12.356Z,14.00
2023-05-07T06:29:40.535Z,14.00
2023-05-07T06:32:15.120Z,14.00
2023-05-07T06:34:43.970Z,14.10
2023-05-07T06:37:11.257Z,14.20
2023-05-07T06:39:50.958Z,14.10
2023-05-07T06:42:17.820Z,14.20
2023-05-07T06:44:47.690Z,14.20
2023-05-07T06:47:17.092Z,14.20
2023-05-07T06:49:46.845Z,14.20
2023-05-07T06:52:17.265Z,14.20
2023-05-07T06:54:45.017Z,14.30
2023-05-07T06:57:14.947Z,14.40
2023-05-07T06:59:41.927Z,14.40
2023-05-07T07:02:09.660Z,14.50
2023-05-07T07:04:36.962Z,14.60
2023-05-07T07:07:07.398Z,14.70
2023-05-07T07:09:34.400Z,14.70
2023-05-07T07:12:02.782Z,14.80
2023-05-07T07:14:30.893Z,14.90
2023-05-07T07:16:58.104Z,15.00
2023-05-07T07:19:26.643Z,14.90
2023-05-07T07:21:55.501Z,15.00
2023-05-07T07:24:22.602Z,15.10
2023-05-07T07:26:53.830Z,15.10
2023-05-07T07:29:21.851Z,15.20
2023-05-07T07:31:51.115Z,15.30
2023-05-07T07:34:19.260Z,15.40
2023-05-07T07:36:47.078Z,15.40
2023-05-07T07:39:17.458Z,15.40
2023-05-07T07:41:46.091Z,15.50
2023-05-07T07:44:16.050Z,15.60
2023-05-07T07:46:46.616Z,15.60
2023-05-07T07:49:14.019Z,15.70
2023-05-07T07:51:41.828Z,15.70
2023-05-07T07:54:09.312Z,15.80
2023-05-07T07:56:36.658Z,15.80
2023-05-07T07:59:05.097Z,15.80
2023-05-07T08:01:33.908Z,15.90
2023-05-07T08:04:01.513Z,16.00
2023-05-07T08:06:30.324Z,16.10
2023-05-07T08:08:57.332Z,16.20
2023-05-07T08:11:24.326Z,16.30
2023-05-07T08:13:52.824Z,16.30
2023-05-07T08:16:20.347Z,16.40
2023-05-07T08:18:48.303Z,16.50
2023-05-07T08:21:15.222Z,16.50
2023-05-07T08:23:42.460Z,16.50
2023-05-07T08:26:10.212Z,16.60
2023-05-07T08:28:37.679Z,16.60
2023-05-07T08:31:04.645Z,16.70
2023-05-07T08:33:35.934Z,16.80
2023-05-07T08:36:02.827Z,16.80
2023-05-07T08:38:30.399Z,16.90
2023-05-07T08:40:57.736Z,17.00
2023-05-07T08:43:28.169Z,17.00
2023-05-07T08:45:56.567Z,17.10
2023-05-07T08:48:30.755Z,17.10
2023-05-07T08:51:06.240Z,17.10
2023-05-07T08:53:34.482Z,17.10
2023-05-07T08:56:02.073Z,17.20
2023-05-07T08:58:30.331Z,17.30
2023-05-07T09:00:57.599Z,17.40
2023-05-07T09:03:25.455Z,17.30
2023-05-07T09:05:55.234Z,17.40
2023-05-07T09:08:27.132Z,17.40
2023-05-07T09:10:55.853Z,17.50
2023-05-07T09:13:23.894Z,17.50
2023-05-07T09:15:51.297Z,17.60
2023-05-07T09:18:18.650Z,17.70
2023-05-07T09:20:47.968Z,17.70
2023-05-07T09:23:16.168Z,17.70
2023-05-07T09:25:44.458Z,17.70
2023-05-07T09:28:18.781Z,17.80
2023-05-07T09:30:46.022Z,17.80
2023-05-07T09:33:15.037Z,17.90
2023-05-07T09:35:46.496Z,17.90
2023-05-07T09:38:20.617Z,17.90
2023-05-07T09:41:02.235Z,17.80
2023-05-07T09:43:35.477Z,17.90
2023-05-07T09:46:12.471Z,17.90
2023-05-07T09:48:43.461Z,17.90
2023-05-07T09:51:19.272Z,18.00
2023-05-07T09:53:47.461Z,18.00
2023-05-07T09:56:16.626Z,18.00
2023-05-07T09:58:45.693Z,18.10
2023-05-07T10:01:13.801Z,18.10
2023-05-07T10:03:44.546Z,18.20
2023-05-07T10:06:12.940Z,18.20
2023-05-07T10:08:41.118Z,18.20
2023-05-07T10:11:09.874Z,18.30
2023-05-07T10:13:38.223Z,18.20
2023-05-07T10:16:07.573Z,18.30
2023-05-07T10:18:42.370Z,18.30
2023-05-07T10:21:19.283Z,18.20
2023-05-07T10:24:00.144Z,18.30
2023-05-07T10:26:30.909Z,18.30
2023-05-07T10:29:04.910Z,18.40
2023-05-07T10:31:55.001Z,18.40
2023-05-07T10:34:27.591Z,18.40
2023-05-07T10:36:56.560Z,18.50
2023-05-07T10:39:24.891Z,18.50
2023-05-07T10:41:52.273Z,18.50
2023-05-07T10:44:29.650Z,18.60
2023-05-07T10:47:11.575Z,18.60
2023-05-07T10:49:46.623Z,18.60
2023-05-07T10:52:24.345Z,18.50
2023-05-07T10:55:20.975Z,18.60
2023-05-07T10:57:55.096Z,18.60
2023-05-07T11:03:08.264Z,18.70
2023-05-07T11:05:43.531Z,18.80
2023-05-07T11:08:24.728Z,18.80
2023-05-07T11:11:05.579Z,19.00
2023-05-07T11:13:49.084Z,19.00
2023-05-07T11:16:45.584Z,19.00
2023-05-07T11:19:50.126Z,19.00
2023-05-07T11:22:34.477Z,19.00
2023-05-07T11:25:22.171Z,19.10
2023-05-07T11:27:56.503Z,19.10
2023-05-07T11:30:23.926Z,19.20
2023-05-07T11:32:50.957Z,19.20
2023-05-07T11:35:19.016Z,19.20
2023-05-07T11:37:49.132Z,19.20
2023-05-07T11:40:16.656Z,19.10
2023-05-07T11:42:44.294Z,19.00
2023-05-07T11:45:12.091Z,19.00
2023-05-07T11:47:39.458Z,19.00
2023-05-07T11:50:11.584Z,19.00
2023-05-07T11:52:40.223Z,18.90
2023-05-07T11:55:09.050Z,18.90
2023-05-07T11:57:36.315Z,19.00
2023-05-07T12:00:05.613Z,19.00
2023-05-07T12:02:43.156Z,18.90
2023-05-07T12:05:11.002Z,19.10
2023-05-07T12:07:38.174Z,19.20
2023-05-07T12:10:08.604Z,19.30
2023-05-07T12:12:45.341Z,19.30
2023-05-07T12:15:12.539Z,19.30
2023-05-07T12:17:39.847Z,19.30
2023-05-07T12:20:08.315Z,19.40
2023-05-07T12:22:35.747Z,19.40
2023-05-07T12:25:03.600Z,19.40
2023-05-07T12:27:31.320Z,19.30
2023-05-07T12:29:59.035Z,19.40
2023-05-07T12:32:26.150Z,19.50
2023-05-07T12:34:53.391Z,19.50
2023-05-07T12:37:27.867Z,19.50
2023-05-07T12:40:14.761Z,19.40
2023-05-07T12:42:42.243Z,19.50
2023-05-07T12:45:19.613Z,19.50
2023-05-07T12:47:48.088Z,19.50
2023-05-07T12:50:16.545Z,19.40
2023-05-07T12:52:48.579Z,19.30
2023-05-07T12:55:17.028Z,19.30
2023-05-07T12:57:49.142Z,19.30
2023-05-07T13:00:16.745Z,19.30
2023-05-07T13:02:47.508Z,19.20
2023-05-07T13:05:14.752Z,19.20
2023-05-07T13:07:42.199Z,19.10
2023-05-07T13:10:10.488Z,19.10
2023-05-07T13:12:37.449Z,19.10
2023-05-07T13:15:04.553Z,19.10
2023-05-07T13:17:32.446Z,19.20
2023-05-07T13:19:59.666Z,19.20
2023-05-07T13:22:26.567Z,19.20
2023-05-07T13:24:53.334Z,19.20
2023-05-07T13:27:21.730Z,19.20
2023-05-07T13:29:48.581Z,19.30
2023-05-07T13:32:15.663Z,19.30
2023-05-07T13:34:42.471Z,19.30
2023-05-07T13:37:11.193Z,19.20
2023-05-07T13:39:38.396Z,19.10
2023-05-07T13:42:05.237Z,19.20
2023-05-07T13:44:32.023Z,19.20
2023-05-07T13:46:58.845Z,19.30
2023-05-07T13:49:25.719Z,19.40
2023-05-07T13:51:52.514Z,19.40
2023-05-07T13:54:19.326Z,19.30
2023-05-07T13:56:46.101Z,19.30
2023-05-07T13:59:15.247Z,19.50
2023-05-07T14:01:42.217Z,19.50
2023-05-07T14:04:09.073Z,19.50
2023-05-07T14:06:35.912Z,19.50
2023-05-07T14:09:02.788Z,19.40
2023-05-07T14:11:29.686Z,19.40
2023-05-07T14:13:57.858Z,19.30
2023-05-07T14:16:24.835Z,19.40
2023-05-07T14:18:51.665Z,19.50
2023-05-07T14:21:18.464Z,19.50
2023-05-07T14:23:45.270Z,19.50
2023-05-07T14:26:12.188Z,19.50
2023-05-07T14:28:40.555Z,19.40
2023-05-07T14:31:07.760Z,19.40
2023-05-07T14:33:34.729Z,19.40
2023-05-07T14:36:01.571Z,19.40
2023-05-07T14:38:28.324Z,19.40
2023-05-07T14:40:56.825Z,19.40
2023-05-07T14:43:23.752Z,19.30
2023-05-07T14:45:51.306Z,19.30
2023-05-07T14:48:20.964Z,19.30
2023-05-07T14:50:49.233Z,19.30
2023-05-07T14:53:16.760Z,19.30
2023-05-07T14:55:43.659Z,19.30
2023-05-07T14:58:12.039Z,19.30
2023-05-07T15:00:39.137Z,19.30
2023-05-07T15:03:08.207Z,19.20
2023-05-07T15:05:36.280Z,19.30
2023-05-07T15:08:03.559Z,19.20
2023-05-07T15:10:30.426Z,19.30
2023-05-07T15:12:57.356Z,19.20
2023-05-07T15:15:24.263Z,19.10
2023-05-07T15:17:52.618Z,19.10
2023-05-07T15:20:19.601Z,19.20
2023-05-07T15:22:46.952Z,19.00
2023-05-07T15:25:13.960Z,18.80
2023-05-07T15:27:40.881Z,18.90
2023-05-07T15:30:08.382Z,18.80
2023-05-07T15:32:35.541Z,18.80
2023-05-07T15:35:02.810Z,18.70
2023-05-07T15:37:31.246Z,18.80
2023-05-07T15:39:58.288Z,18.70
2023-05-07T15:42:25.222Z,18.80
2023-05-07T15:44:52.228Z,18.70
2023-05-07T15:47:19.023Z,18.70
2023-05-07T15:49:45.810Z,18.70
2023-05-07T15:52:15.388Z,18.60
2023-05-07T15:54:42.362Z,18.50
2023-05-07T15:57:10.074Z,18.50
2023-05-07T15:59:36.901Z,18.40
2023-05-07T16:02:04.057Z,18.40
2023-05-07T16:04:31.209Z,18.40
2023-05-07T16:06:58.418Z,18.60
2023-05-07T16:09:25.754Z,18.50
2023-05-07T16:11:52.647Z,18.60
2023-05-07T16:14:19.456Z,18.50
2023-05-07T16:16:46.301Z,18.50
2023-05-07T16:19:13.078Z,18.30
2023-05-07T16:21:40.941Z,18.20
2023-05-07T16:24:07.968Z,18.40
2023-05-07T16:26:34.737Z,18.50
2023-05-07T16:29:01.888Z,18.30
2023-05-07T16:31:28.871Z,18.40
2023-05-07T16:33:56.329Z,18.40
2023-05-07T16:36:23.170Z,18.30
2023-05-07T16:38:49.961Z,18.20
2023-05-07T16:41:16.739Z,18.10
2023-05-07T16:43:43.542Z,17.90
2023-05-07T16:46:10.550Z,17.90
2023-05-07T16:48:37.410Z,17.80
2023-05-07T16:51:04.421Z,17.80
2023-05-07T16:53:31.256Z,17.70
2023-05-07T16:55:58.193Z,17.70
2023-05-07T16:58:25.168Z,17.90
2023-05-07T17:00:51.980Z,17.90
2023-05-07T17:03:19.597Z,17.70
2023-05-07T17:05:46.920Z,17.60
2023-05-07T17:08:14.490Z,17.60
2023-05-07T17:10:42.130Z,17.50
2023-05-07T17:13:09.097Z,17.40
2023-05-07T17:15:36.078Z,17.30
2023-05-07T17:18:03.157Z,17.30
2023-05-07T17:20:30.208Z,17.30
2023-05-07T17:22:57.031Z,17.30
2023-05-07T17:25:24.295Z,17.30
2023-05-07T17:27:51.401Z,17.20
2023-05-07T17:30:18.798Z,17.20
2023-05-07T17:32:45.864Z,17.10
2023-05-07T17:35:12.793Z,17.10
2023-05-07T17:37:40.153Z,17.00
2023-05-07T17:40:07.697Z,17.10
2023-05-07T17:42:34.714Z,17.10
2023-05-07T17:45:01.701Z,17.00
2023-05-07T17:47:28.662Z,17.00
2023-05-07T17:49:55.677Z,17.10
2023-05-07T17:52:22.627Z,17.10
2023-05-07T17:54:49.864Z,17.10
2023-05-07T17:57:16.810Z,17.10
2023-05-07T17:59:43.631Z,17.10
2023-05-07T18:02:10.579Z,17.10
2023-05-07T18:04:37.551Z,17.10
2023-05-07T18:07:04.543Z,17.00
2023-05-07T18:09:31.487Z,17.00
2023-05-07T18:11:58.406Z,16.90
2023-05-07T18:14:26.175Z,16.90
2023-05-07T18:16:54.196Z,16.90
2023-05-07T18:19:21.446Z,17.00
2023-05-07T18:21:49.107Z,16.80
2023-05-07T18:24:16.179Z,16.80
2023-05-07T18:26:43.089Z,16.70
2023-05-07T18:29:09.926Z,16.70
2023-05-07T18:31:38.059Z,16.60
2023-05-07T18:34:06.382Z,16.50
2023-05-07T18:36:33.545Z,16.40
2023-05-07T18:39:01.321Z,16.30
2023-05-07T18:41:28.319Z,16.30
2023-05-07T18:43:55.123Z,16.30
2023-05-07T18:46:21.997Z,16.20
2023-05-07T18:48:48.895Z,16.20
2023-05-07T18:51:15.750Z,16.20
2023-05-07T18:53:42.607Z,16.30
2023-05-07T18:56:09.815Z,16.20
2023-05-07T18:58:36.726Z,16.20
2023-05-07T19:01:08.438Z,16.10
2023-05-07T19:03:35.917Z,16.00
2023-05-07T19:06:03.164Z,16.10
2023-05-07T19:08:30.046Z,16.10
2023-05-07T19:10:56.870Z,16.10
2023-05-07T19:13:25.788Z,16.20
2023-05-07T19:15:53.440Z,16.20
2023-05-07T19:18:20.573Z,16.10
2023-05-07T19:20:49.416Z,16.00
2023-05-07T19:23:17.305Z,16.00
2023-05-07T19:25:44.208Z,15.90
2023-05-07T19:28:11.075Z,16.00
2023-05-07T19:30:39.856Z,15.90
2023-05-07T19:33:07.087Z,15.90
2023-05-07T19:35:35.373Z,15.80
2023-05-07T19:38:02.970Z,15.80
2023-05-07T19:40:29.848Z,15.70
2023-05-07T19:42:56.692Z,15.70
2023-05-07T19:45:23.575Z,15.60
2023-05-07T19:47:51.122Z,15.60
2023-05-07T19:50:18.030Z,15.60
2023-05-07T19:52:44.977Z,15.60
2023-05-07T19:55:12.849Z,15.50
2023-05-07T19:57:39.908Z,15.60
2023-05-07T20:00:07.531Z,15.70
2023-05-07T20:02:40.042Z,15.70
2023-05-07T20:05:07.344Z,15.70
2023-05-07T20:07:34.179Z,15.80
2023-05-07T20:10:01.014Z,15.80
2023-05-07T20:12:27.937Z,15.80
2023-05-07T20:14:54.795Z,15.70
2023-05-07T20:17:21.633Z,15.70
2023-05-07T20:19:48.569Z,15.70
2023-05-07T20:22:15.519Z,15.70
2023-05-07T20:24:42.378Z,15.70
2023-05-07T20:27:09.645Z,15.80
2023-05-07T20:29:36.545Z,15.60
2023-05-07T20:32:03.683Z,15.50
2023-05-07T20:34:30.673Z,15.40
2023-05-07T20:36:57.581Z,15.40
2023-05-07T20:39:24.428Z,15.30
2023-05-07T20:41:51.567Z,15.30
2023-05-07T20:44:19.086Z,15.20
2023-05-07T20:46:46.143Z,15.20
2023-05-07T20:49:13.859Z,15.20
2023-05-07T20:51:40.995Z,15.20
2023-05-07T20:54:08.792Z,15.30
2023-05-07T20:56:35.654Z,15.20
2023-05-07T20:59:02.509Z,15.30
2023-05-07T21:01:29.731Z,15.20
2023-05-07T21:03:56.954Z,15.20
2023-05-07T21:06:23.902Z,15.10
2023-05-07T21:08:50.917Z,15.10
2023-05-07T21:11:18.180Z,15.10
2023-05-07T21:13:45.242Z,15.10
2023-05-07T21:16:12.255Z,15.00
2023-05-07T21:18:39.211Z,15.00
2023-05-07T21:21:09.901Z,15.00
2023-05-07T21:23:37.636Z,15.00
2023-05-07T21:26:04.851Z,15.00
2023-05-07T21:28:31.802Z,15.00
2023-05-07T21:30:58.688Z,15.10
2023-05-07T21:33:25.845Z,14.90
2023-05-07T21:35:52.764Z,14.90
2023-05-07T21:38:19.623Z,14.90
2023-05-07T21:40:46.507Z,14.90
2023-05-07T21:43:13.412Z,14.90
2023-05-07T21:45:41.157Z,14.90
2023-05-07T21:48:08.287Z,14.90
2023-05-07T21:50:35.924Z,14.90
2023-05-07T21:53:02.796Z,14.90
2023-05-07T21:55:29.801Z,14.80
2023-05-07T21:58:04.696Z,14.80
2023-05-07T22:00:32.823Z,14.70
2023-05-07T22:02:59.898Z,14.80
2023-05-07T22:05:26.870Z,14.80
2023-05-07T22:07:53.698Z,14.80
2023-05-07T22:10:23.014Z,14.80
2023-05-07T22:12:50.456Z,14.70
2023-05-07T22:15:17.849Z,14.70
2023-05-07T22:17:45.000Z,14.70
2023-05-07T22:20:12.330Z,14.70
2023-05-07T22:22:47.511Z,14.70
2023-05-07T22:25:16.127Z,14.70
2023-05-07T22:27:43.357Z,14.70
2023-05-07T22:30:11.144Z,14.90
2023-05-07T22:32:38.503Z,14.70
2023-05-07T22:35:06.137Z,14.70
2023-05-07T22:37:33.337Z,14.70
2023-05-07T22:40:00.312Z,14.60
2023-05-07T22:42:27.139Z,14.60
2023-05-07T22:44:55.188Z,14.60
2023-05-07T22:47:23.078Z,14.60
2023-05-07T22:49:50.133Z,14.60
2023-05-07T22:52:17.347Z,14.60
2023-05-07T22:54:44.285Z,14.60
2023-05-07T22:57:11.300Z,14.50
2023-05-07T22:59:38.171Z,14.60
2023-05-07T23:02:05.254Z,14.60
2023-05-07T23:04:32.188Z,14.50
2023-05-07T23:06:59.074Z,14.50
2023-05-07T23:09:25.954Z,14.50
2023-05-07T23:11:52.904Z,14.50
2023-05-07T23:14:20.516Z,14.40
2023-05-07T23:16:48.236Z,14.50
2023-05-07T23:19:15.159Z,14.50
2023-05-07T23:21:42.016Z,14.50
2023-05-07T23:24:09.019Z,14.50
2023-05-07T23:26:35.879Z,14.50
2023-05-07T23:29:02.901Z,14.40
2023-05-07T23:31:29.946Z,14.40
2023-05-07T23:33:56.890Z,14.40
2023-05-07T23:36:23.769Z,14.40
2023-05-07T23:38:50.984Z,14.40
2023-05-07T23:41:17.816Z,14.60
2023-05-07T23:43:44.740Z,14.40
2023-05-07T23:46:11.638Z,14.40
2023-05-07T23:48:38.571Z,14.30
2023-05-07T23:51:05.531Z,14.40
2023-05-07T23:53:32.379Z,14.40
2023-05-07T23:55:59.203Z,14.30
2023-05-07T23:58:26.110Z,14.30
